sensor_id;sensor_type;location;lat;lon;timestamp;temperature;humidity
10964;DHT22;5534;48.784;9.190;2023-05-10T00:00:52;16.80;99.90
10964;DHT22;5534;48.784;9.190;2023-05-10T00:03:18;16.90;99.90
10964;DHT22;5534;48.784;9.190;2023-05-10T00:05:44;16.90;99.90
10964;DHT22;5534;48.784;9.190;2023-05-10T00:08:09;16.80;99.90
10964;DHT22;5534;48.784;9.190;2023-05-10T00:10:35;16.80;99.90
10964;DHT22;5534;48.784;9.190;2023-05-10T00:13:03;16.70;99.90
10964;DHT22;5534;48.784;9.190;2023-05-10T00:15:29;16.70;99.90
10964;DHT22;5534;48.784;9.190;2023-05-10T00:17:56;16.50;99.90
10964;DHT22;5534;48.784;9.190;2023-05-10T00:20:22;16.60;99.90
10964;DHT22;5534;48.784;9.190;2023-05-10T00:22:48;16.60;99.90
10964;DHT22;5534;48.784;9.190;2023-05-10T00:25:13;16.50;99.90
10964;DHT22;5534;48.784;9.190;2023-05-10T00:27:39;16.20;99.90
10964;DHT22;5534;48.784;9.190;2023-05-10T00:30:05;16.30;99.90
10964;DHT22;5534;48.784;9.190;2023-05-10T00:32:32;16.40;99.90
10964;DHT22;5534;48.784;9.190;2023-05-10T00:34:58;16.50;99.90
10964;DHT22;5534;48.784;9.190;2023-05-10T00:37:24;16.30;99.90
10964;DHT22;5534;48.784;9.190;2023-05-10T00:39:49;16.30;99.90
10964;DHT22;5534;48.784;9.190;2023-05-10T00:42:15;16.40;99.90
10964;DHT22;5534;48.784;9.190;2023-05-10T00:44:41;16.50;99.90
10964;DHT22;5534;48.784;9.190;2023-05-10T00:47:07;16.40;99.90
10964;DHT22;5534;48.784;9.190;2023-05-10T00:49:34;16.40;99.90
10964;DHT22;5534;48.784;9.190;2023-05-10T00:52:00;16.40;99.90
10964;DHT22;5534;48.784;9.190;2023-05-10T00:54:27;16.30;99.90
10964;DHT22;5534;48.784;9.190;2023-05-10T00:56:53;16.30;99.90
10964;DHT22;5534;48.784;9.190;2023-05-10T00:59:19;16.30;99.90
10964;DHT22;5534;48.784;9.190;2023-05-10T01:01:46;16.20;99.90
10964;DHT22;5534;48.784;9.190;2023-05-10T01:04:13;16.30;99.90
10964;DHT22;5534;48.784;9.190;2023-05-10T01:06:42;16.20;99.90
10964;DHT22;5534;48.784;9.190;2023-05-10T01:09:08;16.20;99.90
10964;DHT22;5534;48.784;9.190;2023-05-10T01:11:38;16.10;99.90
10964;DHT22;5534;48.784;9.190;2023-05-10T01:14:05;16.20;99.90
10964;DHT22;5534;48.784;9.190;2023-05-10T01:16:36;16.20;99.90
10964;DHT22;5534;48.784;9.190;2023-05-10T01:19:10;16.30;99.90
10964;DHT22;5534;48.784;9.190;2023-05-10T01:26:50;16.10;99.90
10964;DHT22;5534;48.784;9.190;2023-05-10T01:34:29;16.20;99.90
10964;DHT22;5534;48.784;9.190;2023-05-10T01:37:09;16.20;99.90
10964;DHT22;5534;48.784;9.190;2023-05-10T01:40:01;16.20;99.90
10964;DHT22;5534;48.784;9.190;2023-05-10T01:42:32;16.20;99.90
10964;DHT22;5534;48.784;9.190;2023-05-10T01:45:23;16.30;99.90
10964;DHT22;5534;48.784;9.190;2023-05-10T01:47:58;16.10;99.90
10964;DHT22;5534;48.784;9.190;2023-05-10T01:50:29;16.00;99.90
10964;DHT22;5534;48.784;9.190;2023-05-10T01:52:57;16.10;99.90
10964;DHT22;5534;48.784;9.190;2023-05-10T01:55:26;16.10;99.90
10964;DHT22;5534;48.784;9.190;2023-05-10T01:58:08;16.00;99.90
10964;DHT22;5534;48.784;9.190;2023-05-10T02:00:35;16.00;99.90
10964;DHT22;5534;48.784;9.190;2023-05-10T02:03:07;16.00;99.90
10964;DHT22;5534;48.784;9.190;2023-05-10T02:05:34;16.00;99.90
10964;DHT22;5534;48.784;9.190;2023-05-10T02:08:03;16.10;99.90
10964;DHT22;5534;48.784;9.190;2023-05-10T02:10:33;16.10;99.90
10964;DHT22;5534;48.784;9.190;2023-05-10T02:13:00;16.10;99.90
10964;DHT22;5534;48.784;9.190;2023-05-10T02:15:27;16.00;99.90
10964;DHT22;5534;48.784;9.190;2023-05-10T02:17:57;15.90;99.90
10964;DHT22;5534;48.784;9.190;2023-05-10T02:20:24;16.00;99.90
10964;DHT22;5534;48.784;9.190;2023-05-10T02:22:53;16.00;99.90
10964;DHT22;5534;48.784;9.190;2023-05-10T02:25:20;16.00;99.90
10964;DHT22;5534;48.784;9.190;2023-05-10T02:27:47;16.10;99.90
10964;DHT22;5534;48.784;9.190;2023-05-10T02:30:14;16.10;99.90
10964;DHT22;5534;48.784;9.190;2023-05-10T02:32:41;16.10;99.90
10964;DHT22;5534;48.784;9.190;2023-05-10T02:35:08;16.10;99.90
10964;DHT22;5534;48.784;9.190;2023-05-10T02:37:37;16.00;99.90
10964;DHT22;5534;48.784;9.190;2023-05-10T02:40:05;16.00;99.90
10964;DHT22;5534;48.784;9.190;2023-05-10T02:42:35;15.90;99.90
10964;DHT22;5534;48.784;9.190;2023-05-10T02:45:03;16.20;99.90
10964;DHT22;5534;48.784;9.190;2023-05-10T02:47:31;16.10;99.90
10964;DHT22;5534;48.784;9.190;2023-05-10T02:49:56;16.00;99.90
10964;DHT22;5534;48.784;9.190;2023-05-10T02:52:29;16.20;99.90
10964;DHT22;5534;48.784;9.190;2023-05-10T02:55:01;16.10;99.90
10964;DHT22;5534;48.784;9.190;2023-05-10T02:57:33;15.90;99.90
10964;DHT22;5534;48.784;9.190;2023-05-10T03:00:00;16.00;99.90
10964;DHT22;5534;48.784;9.190;2023-05-10T03:02:26;16.00;99.90
10964;DHT22;5534;48.784;9.190;2023-05-10T03:04:52;16.00;99.90
10964;DHT22;5534;48.784;9.190;2023-05-10T03:07:18;16.10;99.90
10964;DHT22;5534;48.784;9.190;2023-05-10T03:09:50;16.10;99.90
10964;DHT22;5534;48.784;9.190;2023-05-10T03:12:45;16.10;99.90
10964;DHT22;5534;48.784;9.190;2023-05-10T03:15:36;16.10;99.90
10964;DHT22;5534;48.784;9.190;2023-05-10T03:18:28;16.10;99.90
10964;DHT22;5534;48.784;9.190;2023-05-10T03:21:03;16.10;99.90
10964;DHT22;5534;48.784;9.190;2023-05-10T03:23:58;16.10;99.90
10964;DHT22;5534;48.784;9.190;2023-05-10T03:26:26;16.00;99.90
10964;DHT22;5534;48.784;9.190;2023-05-10T03:28:53;15.90;99.90
10964;DHT22;5534;48.784;9.190;2023-05-10T03:31:19;15.80;99.90
10964;DHT22;5534;48.784;9.190;2023-05-10T03:33:50;15.80;99.90
10964;DHT22;5534;48.784;9.190;2023-05-10T03:36:16;15.80;99.90
10964;DHT22;5534;48.784;9.190;2023-05-10T03:38:42;15.90;99.90
10964;DHT22;5534;48.784;9.190;2023-05-10T03:41:08;16.00;99.90
10964;DHT22;5534;48.784;9.190;2023-05-10T03:43:34;15.90;99.90
10964;DHT22;5534;48.784;9.190;2023-05-10T03:46:02;15.90;99.90
10964;DHT22;5534;48.784;9.190;2023-05-10T03:48:28;16.00;99.90
10964;DHT22;5534;48.784;9.190;2023-05-10T03:50:54;15.90;99.90
10964;DHT22;5534;48.784;9.190;2023-05-10T03:53:19;15.90;99.90
10964;DHT22;5534;48.784;9.190;2023-05-10T03:55:45;16.00;99.90
10964;DHT22;5534;48.784;9.190;2023-05-10T03:58:11;16.00;99.90
10964;DHT22;5534;48.784;9.190;2023-05-10T04:00:37;16.00;99.90
10964;DHT22;5534;48.784;9.190;2023-05-10T04:03:09;16.10;99.90
10964;DHT22;5534;48.784;9.190;2023-05-10T04:05:35;16.10;99.90
10964;DHT22;5534;48.784;9.190;2023-05-10T04:08:02;16.10;99.90
10964;DHT22;5534;48.784;9.190;2023-05-10T04:10:27;16.10;99.90
10964;DHT22;5534;48.784;9.190;2023-05-10T04:12:53;16.10;99.90
10964;DHT22;5534;48.784;9.190;2023-05-10T04:15:19;16.10;99.90
10964;DHT22;5534;48.784;9.190;2023-05-10T04:17:45;16.10;99.90
10964;DHT22;5534;48.784;9.190;2023-05-10T04:20:11;16.00;99.90
10964;DHT22;5534;48.784;9.190;2023-05-10T04:22:37;16.00;99.90
10964;DHT22;5534;48.784;9.190;2023-05-10T04:25:03;16.00;99.90
10964;DHT22;5534;48.784;9.190;2023-05-10T04:27:30;16.00;99.90
10964;DHT22;5534;48.784;9.190;2023-05-10T04:29:56;15.90;99.90
10964;DHT22;5534;48.784;9.190;2023-05-10T04:32:22;15.90;99.90
10964;DHT22;5534;48.784;9.190;2023-05-10T04:34:48;15.80;99.90
10964;DHT22;5534;48.784;9.190;2023-05-10T04:37:14;15.90;99.90
10964;DHT22;5534;48.784;9.190;2023-05-10T04:39:40;16.00;99.90
10964;DHT22;5534;48.784;9.190;2023-05-10T04:42:06;15.90;99.90
10964;DHT22;5534;48.784;9.190;2023-05-10T04:44:32;16.00;99.90
10964;DHT22;5534;48.784;9.190;2023-05-10T04:46:58;16.00;99.90
10964;DHT22;5534;48.784;9.190;2023-05-10T04:49:24;16.00;99.90
10964;DHT22;5534;48.784;9.190;2023-05-10T04:51:50;16.00;99.90
10964;DHT22;5534;48.784;9.190;2023-05-10T04:54:16;16.00;99.90
10964;DHT22;5534;48.784;9.190;2023-05-10T04:56:41;16.10;99.90
10964;DHT22;5534;48.784;9.190;2023-05-10T04:59:07;16.00;99.90
10964;DHT22;5534;48.784;9.190;2023-05-10T05:01:33;16.00;99.90
10964;DHT22;5534;48.784;9.190;2023-05-10T05:03:59;16.00;99.90
10964;DHT22;5534;48.784;9.190;2023-05-10T05:06:25;16.00;99.90
10964;DHT22;5534;48.784;9.190;2023-05-10T05:08:52;15.90;99.90
10964;DHT22;5534;48.784;9.190;2023-05-10T05:11:18;16.00;99.90
10964;DHT22;5534;48.784;9.190;2023-05-10T05:13:44;16.00;99.90
10964;DHT22;5534;48.784;9.190;2023-05-10T05:16:10;16.00;99.90
10964;DHT22;5534;48.784;9.190;2023-05-10T05:18:37;16.10;99.90
10964;DHT22;5534;48.784;9.190;2023-05-10T05:21:02;16.20;99.90
10964;DHT22;5534;48.784;9.190;2023-05-10T05:23:28;16.20;99.90
10964;DHT22;5534;48.784;9.190;2023-05-10T05:25:54;16.30;99.90
10964;DHT22;5534;48.784;9.190;2023-05-10T05:28:23;16.30;99.90
10964;DHT22;5534;48.784;9.190;2023-05-10T05:30:49;16.30;99.90
10964;DHT22;5534;48.784;9.190;2023-05-10T05:33:15;16.20;99.90
10964;DHT22;5534;48.784;9.190;2023-05-10T05:35:41;16.20;99.90
10964;DHT22;5534;48.784;9.190;2023-05-10T05:38:08;16.30;99.90
10964;DHT22;5534;48.784;9.190;2023-05-10T05:40:34;16.30;99.90
10964;DHT22;5534;48.784;9.190;2023-05-10T05:42:59;16.40;99.90
10964;DHT22;5534;48.784;9.190;2023-05-10T05:45:25;16.30;99.90
10964;DHT22;5534;48.784;9.190;2023-05-10T05:47:51;16.40;99.90
10964;DHT22;5534;48.784;9.190;2023-05-10T05:50:17;16.40;99.90
10964;DHT22;5534;48.784;9.190;2023-05-10T05:52:43;16.40;99.90
10964;DHT22;5534;48.784;9.190;2023-05-10T05:55:09;16.40;99.90
10964;DHT22;5534;48.784;9.190;2023-05-10T05:57:35;16.40;99.90
10964;DHT22;5534;48.784;9.190;2023-05-10T06:00:01;16.40;99.90
10964;DHT22;5534;48.784;9.190;2023-05-10T06:02:28;16.30;99.90
10964;DHT22;5534;48.784;9.190;2023-05-10T06:04:53;16.40;99.90
10964;DHT22;5534;48.784;9.190;2023-05-10T06:07:19;16.30;99.90
10964;DHT22;5534;48.784;9.190;2023-05-10T06:09:45;16.40;99.90
10964;DHT22;5534;48.784;9.190;2023-05-10T06:12:11;16.40;99.90
10964;DHT22;5534;48.784;9.190;2023-05-10T06:14:37;16.40;99.90
10964;DHT22;5534;48.784;9.190;2023-05-10T06:17:03;16.30;99.90
10964;DHT22;5534;48.784;9.190;2023-05-10T06:19:30;16.40;99.90
10964;DHT22;5534;48.784;9.190;2023-05-10T06:21:56;16.50;99.90
10964;DHT22;5534;48.784;9.190;2023-05-10T06:24:21;16.60;99.90
10964;DHT22;5534;48.784;9.190;2023-05-10T06:26:47;16.60;99.90
10964;DHT22;5534;48.784;9.190;2023-05-10T06:29:15;16.60;99.90
10964;DHT22;5534;48.784;9.190;2023-05-10T06:31:41;16.70;99.90
10964;DHT22;5534;48.784;9.190;2023-05-10T06:34:06;16.60;99.90
10964;DHT22;5534;48.784;9.190;2023-05-10T06:36:33;16.60;99.90
10964;DHT22;5534;48.784;9.190;2023-05-10T06:38:59;16.50;99.90
10964;DHT22;5534;48.784;9.190;2023-05-10T06:41:25;16.50;99.90
10964;DHT22;5534;48.784;9.190;2023-05-10T06:43:51;16.50;99.90
10964;DHT22;5534;48.784;9.190;2023-05-10T06:46:17;16.40;99.90
10964;DHT22;5534;48.784;9.190;2023-05-10T06:48:42;16.50;99.90
10964;DHT22;5534;48.784;9.190;2023-05-10T06:51:08;16.50;99.90
10964;DHT22;5534;48.784;9.190;2023-05-10T06:53:34;16.50;99.90
10964;DHT22;5534;48.784;9.190;2023-05-10T06:56:00;16.60;99.90
10964;DHT22;5534;48.784;9.190;2023-05-10T06:58:28;16.50;99.90
10964;DHT22;5534;48.784;9.190;2023-05-10T07:00:54;16.50;99.90
10964;DHT22;5534;48.784;9.190;2023-05-10T07:03:20;16.30;99.90
10964;DHT22;5534;48.784;9.190;2023-05-10T07:05:45;16.30;99.90
10964;DHT22;5534;48.784;9.190;2023-05-10T07:08:11;16.30;99.90
10964;DHT22;5534;48.784;9.190;2023-05-10T07:10:37;16.40;99.90
10964;DHT22;5534;48.784;9.190;2023-05-10T07:13:03;16.40;99.90
10964;DHT22;5534;48.784;9.190;2023-05-10T07:15:28;16.50;99.90
10964;DHT22;5534;48.784;9.190;2023-05-10T07:17:54;16.50;99.90
10964;DHT22;5534;48.784;9.190;2023-05-10T07:20:20;16.70;99.90
10964;DHT22;5534;48.784;9.190;2023-05-10T07:22:46;16.80;99.90
10964;DHT22;5534;48.784;9.190;2023-05-10T07:25:12;16.90;99.90
10964;DHT22;5534;48.784;9.190;2023-05-10T07:27:37;16.70;99.90
10964;DHT22;5534;48.784;9.190;2023-05-10T07:30:03;17.00;99.90
10964;DHT22;5534;48.784;9.190;2023-05-10T07:32:29;17.10;99.90
10964;DHT22;5534;48.784;9.190;2023-05-10T07:34:56;17.20;99.90
10964;DHT22;5534;48.784;9.190;2023-05-10T07:37:21;17.00;99.90
10964;DHT22;5534;48.784;9.190;2023-05-10T07:39:47;17.10;99.90
10964;DHT22;5534;48.784;9.190;2023-05-10T07:42:13;17.10;99.90
10964;DHT22;5534;48.784;9.190;2023-05-10T07:44:38;17.00;99.90
10964;DHT22;5534;48.784;9.190;2023-05-10T07:47:04;17.20;99.90
10964;DHT22;5534;48.784;9.190;2023-05-10T07:49:30;17.20;99.90
10964;DHT22;5534;48.784;9.190;2023-05-10T07:51:55;17.20;99.90
10964;DHT22;5534;48.784;9.190;2023-05-10T07:54:21;17.20;99.90
10964;DHT22;5534;48.784;9.190;2023-05-10T07:56:47;17.10;99.90
10964;DHT22;5534;48.784;9.190;2023-05-10T07:59:17;17.00;99.90
10964;DHT22;5534;48.784;9.190;2023-05-10T08:01:45;17.10;99.90
10964;DHT22;5534;48.784;9.190;2023-05-10T08:04:10;17.20;99.90
10964;DHT22;5534;48.784;9.190;2023-05-10T08:06:37;17.20;99.90
10964;DHT22;5534;48.784;9.190;2023-05-10T08:09:02;17.20;99.90
10964;DHT22;5534;48.784;9.190;2023-05-10T08:11:28;17.00;99.90
10964;DHT22;5534;48.784;9.190;2023-05-10T08:13:54;17.10;99.90
10964;DHT22;5534;48.784;9.190;2023-05-10T08:16:20;16.90;99.90
10964;DHT22;5534;48.784;9.190;2023-05-10T08:18:46;17.00;99.90
10964;DHT22;5534;48.784;9.190;2023-05-10T08:21:13;17.00;99.90
10964;DHT22;5534;48.784;9.190;2023-05-10T08:23:39;17.10;99.90
10964;DHT22;5534;48.784;9.190;2023-05-10T08:26:05;17.10;99.90
10964;DHT22;5534;48.784;9.190;2023-05-10T08:28:31;16.90;99.90
10964;DHT22;5534;48.784;9.190;2023-05-10T08:30:58;17.10;99.90
10964;DHT22;5534;48.784;9.190;2023-05-10T08:33:25;17.20;99.90
10964;DHT22;5534;48.784;9.190;2023-05-10T08:35:51;17.30;99.90
10964;DHT22;5534;48.784;9.190;2023-05-10T08:38:18;17.30;99.90
10964;DHT22;5534;48.784;9.190;2023-05-10T08:40:44;17.40;99.90
10964;DHT22;5534;48.784;9.190;2023-05-10T08:43:12;17.30;99.90
10964;DHT22;5534;48.784;9.190;2023-05-10T08:45:42;17.30;99.90
10964;DHT22;5534;48.784;9.190;2023-05-10T08:48:09;17.30;99.90
10964;DHT22;5534;48.784;9.190;2023-05-10T08:50:36;17.10;99.90
10964;DHT22;5534;48.784;9.190;2023-05-10T08:53:05;17.30;99.90
10964;DHT22;5534;48.784;9.190;2023-05-10T08:55:33;17.40;99.90
10964;DHT22;5534;48.784;9.190;2023-05-10T08:58:09;17.40;99.90
10964;DHT22;5534;48.784;9.190;2023-05-10T09:00:35;17.30;99.90
10964;DHT22;5534;48.784;9.190;2023-05-10T09:03:03;17.60;99.90
10964;DHT22;5534;48.784;9.190;2023-05-10T09:05:30;17.50;99.90
10964;DHT22;5534;48.784;9.190;2023-05-10T09:07:56;17.60;99.90
10964;DHT22;5534;48.784;9.190;2023-05-10T09:10:22;17.70;99.90
10964;DHT22;5534;48.784;9.190;2023-05-10T09:12:51;17.60;99.90
10964;DHT22;5534;48.784;9.190;2023-05-10T09:15:18;17.80;99.90
10964;DHT22;5534;48.784;9.190;2023-05-10T09:17:46;17.90;99.90
10964;DHT22;5534;48.784;9.190;2023-05-10T09:20:12;17.90;99.90
10964;DHT22;5534;48.784;9.190;2023-05-10T09:22:38;17.80;99.90
10964;DHT22;5534;48.784;9.190;2023-05-10T09:25:12;18.00;99.90
10964;DHT22;5534;48.784;9.190;2023-05-10T09:27:39;17.80;99.90
10964;DHT22;5534;48.784;9.190;2023-05-10T09:30:06;17.60;99.90
10964;DHT22;5534;48.784;9.190;2023-05-10T09:32:46;17.50;99.90
10964;DHT22;5534;48.784;9.190;2023-05-10T09:35:18;17.60;99.90
10964;DHT22;5534;48.784;9.190;2023-05-10T09:37:48;17.60;99.90
10964;DHT22;5534;48.784;9.190;2023-05-10T09:40:16;17.60;99.90
10964;DHT22;5534;48.784;9.190;2023-05-10T09:43:02;17.50;99.90
10964;DHT22;5534;48.784;9.190;2023-05-10T09:45:41;17.60;99.90
10964;DHT22;5534;48.784;9.190;2023-05-10T09:48:06;17.90;99.90
10964;DHT22;5534;48.784;9.190;2023-05-10T09:50:32;18.00;99.90
10964;DHT22;5534;48.784;9.190;2023-05-10T09:53:01;18.10;99.90
10964;DHT22;5534;48.784;9.190;2023-05-10T09:55:43;18.10;99.90
10964;DHT22;5534;48.784;9.190;2023-05-10T09:58:10;18.20;99.90
10964;DHT22;5534;48.784;9.190;2023-05-10T10:00:39;18.30;99.90
10964;DHT22;5534;48.784;9.190;2023-05-10T10:03:05;18.40;99.90
10964;DHT22;5534;48.784;9.190;2023-05-10T10:05:35;18.40;99.90
10964;DHT22;5534;48.784;9.190;2023-05-10T10:08:04;18.40;99.90
10964;DHT22;5534;48.784;9.190;2023-05-10T10:10:32;18.30;99.90
10964;DHT22;5534;48.784;9.190;2023-05-10T10:12:58;18.10;99.90
10964;DHT22;5534;48.784;9.190;2023-05-10T10:15:25;18.10;99.90
10964;DHT22;5534;48.784;9.190;2023-05-10T10:17:52;17.80;99.90
10964;DHT22;5534;48.784;9.190;2023-05-10T10:20:19;17.60;99.90
10964;DHT22;5534;48.784;9.190;2023-05-10T10:22:46;17.30;99.90
10964;DHT22;5534;48.784;9.190;2023-05-10T10:25:14;17.50;99.90
10964;DHT22;5534;48.784;9.190;2023-05-10T10:36:08;17.90;99.90
10964;DHT22;5534;48.784;9.190;2023-05-10T10:52:35;17.90;99.90
10964;DHT22;5534;48.784;9.190;2023-05-10T10:57:42;17.60;99.90
10964;DHT22;5534;48.784;9.190;2023-05-10T11:00:27;17.70;99.90
10964;DHT22;5534;48.784;9.190;2023-05-10T11:03:05;17.80;99.90
10964;DHT22;5534;48.784;9.190;2023-05-10T11:05:47;17.30;99.90
10964;DHT22;5534;48.784;9.190;2023-05-10T11:08:34;17.30;99.90
10964;DHT22;5534;48.784;9.190;2023-05-10T11:11:05;17.50;99.90
10964;DHT22;5534;48.784;9.190;2023-05-10T11:16:14;17.60;99.90
10964;DHT22;5534;48.784;9.190;2023-05-10T11:18:40;17.50;99.90
10964;DHT22;5534;48.784;9.190;2023-05-10T11:21:15;17.40;99.90
10964;DHT22;5534;48.784;9.190;2023-05-10T11:26:12;17.30;99.90
10964;DHT22;5534;48.784;9.190;2023-05-10T11:28:42;17.30;99.90
10964;DHT22;5534;48.784;9.190;2023-05-10T11:31:09;17.30;99.90
10964;DHT22;5534;48.784;9.190;2023-05-10T11:33:45;17.40;99.90
10964;DHT22;5534;48.784;9.190;2023-05-10T11:36:13;17.60;99.90
10964;DHT22;5534;48.784;9.190;2023-05-10T11:38:39;17.60;99.90
10964;DHT22;5534;48.784;9.190;2023-05-10T11:41:05;17.80;99.90
10964;DHT22;5534;48.784;9.190;2023-05-10T11:43:31;17.40;99.90
10964;DHT22;5534;48.784;9.190;2023-05-10T11:45:57;17.70;99.90
10964;DHT22;5534;48.784;9.190;2023-05-10T11:48:23;17.80;99.90
10964;DHT22;5534;48.784;9.190;2023-05-10T11:50:50;18.10;99.90
10964;DHT22;5534;48.784;9.190;2023-05-10T11:53:21;17.90;99.90
10964;DHT22;5534;48.784;9.190;2023-05-10T11:55:47;17.80;99.90
10964;DHT22;5534;48.784;9.190;2023-05-10T11:58:13;17.70;99.90
10964;DHT22;5534;48.784;9.190;2023-05-10T12:00:39;17.60;99.90
10964;DHT22;5534;48.784;9.190;2023-05-10T12:03:05;17.30;99.90
10964;DHT22;5534;48.784;9.190;2023-05-10T12:05:32;17.20;99.90
10964;DHT22;5534;48.784;9.190;2023-05-10T12:08:12;17.40;99.90
10964;DHT22;5534;48.784;9.190;2023-05-10T12:10:38;17.50;99.90
10964;DHT22;5534;48.784;9.190;2023-05-10T12:13:04;17.40;99.90
10964;DHT22;5534;48.784;9.190;2023-05-10T12:15:29;17.40;99.90
10964;DHT22;5534;48.784;9.190;2023-05-10T12:17:56;17.30;99.90
10964;DHT22;5534;48.784;9.190;2023-05-10T12:20:24;17.30;99.90
10964;DHT22;5534;48.784;9.190;2023-05-10T12:22:57;17.50;99.90
10964;DHT22;5534;48.784;9.190;2023-05-10T12:25:30;17.60;99.90
10964;DHT22;5534;48.784;9.190;2023-05-10T12:27:57;17.60;99.90
10964;DHT22;5534;48.784;9.190;2023-05-10T12:30:24;17.50;99.90
10964;DHT22;5534;48.784;9.190;2023-05-10T12:32:51;17.50;99.90
10964;DHT22;5534;48.784;9.190;2023-05-10T12:35:17;17.70;99.90
10964;DHT22;5534;48.784;9.190;2023-05-10T12:37:48;17.80;99.90
10964;DHT22;5534;48.784;9.190;2023-05-10T12:40:14;17.90;99.90
10964;DHT22;5534;48.784;9.190;2023-05-10T12:42:40;17.90;99.90
10964;DHT22;5534;48.784;9.190;2023-05-10T12:45:07;18.00;99.90
10964;DHT22;5534;48.784;9.190;2023-05-10T12:47:34;18.10;99.90
10964;DHT22;5534;48.784;9.190;2023-05-10T12:50:01;18.20;99.90
10964;DHT22;5534;48.784;9.190;2023-05-10T12:52:28;17.90;99.90
10964;DHT22;5534;48.784;9.190;2023-05-10T12:54:54;18.10;99.90
10964;DHT22;5534;48.784;9.190;2023-05-10T12:57:20;18.20;99.90
10964;DHT22;5534;48.784;9.190;2023-05-10T12:59:47;18.00;99.90
10964;DHT22;5534;48.784;9.190;2023-05-10T13:02:12;17.80;99.90
10964;DHT22;5534;48.784;9.190;2023-05-10T13:04:40;17.80;99.90
10964;DHT22;5534;48.784;9.190;2023-05-10T13:07:09;17.70;99.90
10964;DHT22;5534;48.784;9.190;2023-05-10T13:09:35;17.60;99.90
10964;DHT22;5534;48.784;9.190;2023-05-10T13:12:01;17.50;99.90
10964;DHT22;5534;48.784;9.190;2023-05-10T13:14:27;17.50;99.90
10964;DHT22;5534;48.784;9.190;2023-05-10T13:16:53;17.50;99.90
10964;DHT22;5534;48.784;9.190;2023-05-10T13:19:19;17.40;99.90
10964;DHT22;5534;48.784;9.190;2023-05-10T13:21:45;17.50;99.90
10964;DHT22;5534;48.784;9.190;2023-05-10T13:24:11;17.60;99.90
10964;DHT22;5534;48.784;9.190;2023-05-10T13:26:41;17.70;99.90
10964;DHT22;5534;48.784;9.190;2023-05-10T13:29:14;17.80;99.90
10964;DHT22;5534;48.784;9.190;2023-05-10T13:31:42;17.70;99.90
10964;DHT22;5534;48.784;9.190;2023-05-10T13:34:08;17.60;99.90
10964;DHT22;5534;48.784;9.190;2023-05-10T13:36:34;17.80;99.90
10964;DHT22;5534;48.784;9.190;2023-05-10T13:39:01;17.90;99.90
10964;DHT22;5534;48.784;9.190;2023-05-10T13:41:28;18.00;99.90
10964;DHT22;5534;48.784;9.190;2023-05-10T13:43:54;18.10;99.90
10964;DHT22;5534;48.784;9.190;2023-05-10T13:46:20;18.20;99.90
10964;DHT22;5534;48.784;9.190;2023-05-10T13:48:46;18.30;99.90
10964;DHT22;5534;48.784;9.190;2023-05-10T13:51:12;18.30;99.90
10964;DHT22;5534;48.784;9.190;2023-05-10T13:53:38;18.20;99.90
10964;DHT22;5534;48.784;9.190;2023-05-10T13:56:03;18.20;99.90
10964;DHT22;5534;48.784;9.190;2023-05-10T13:58:29;18.10;99.90
10964;DHT22;5534;48.784;9.190;2023-05-10T14:00:55;18.10;99.90
10964;DHT22;5534;48.784;9.190;2023-05-10T14:03:21;18.10;99.90
10964;DHT22;5534;48.784;9.190;2023-05-10T14:05:47;18.10;99.90
10964;DHT22;5534;48.784;9.190;2023-05-10T14:08:13;18.10;99.90
10964;DHT22;5534;48.784;9.190;2023-05-10T14:10:39;18.00;99.90
10964;DHT22;5534;48.784;9.190;2023-05-10T14:13:05;18.10;99.90
10964;DHT22;5534;48.784;9.190;2023-05-10T14:15:31;18.20;99.90
10964;DHT22;5534;48.784;9.190;2023-05-10T14:17:57;18.20;99.90
10964;DHT22;5534;48.784;9.190;2023-05-10T14:20:23;18.30;99.90
10964;DHT22;5534;48.784;9.190;2023-05-10T14:22:48;18.30;99.90
10964;DHT22;5534;48.784;9.190;2023-05-10T14:25:17;18.30;99.90
10964;DHT22;5534;48.784;9.190;2023-05-10T14:27:43;18.20;99.90
10964;DHT22;5534;48.784;9.190;2023-05-10T14:30:10;18.40;99.90
10964;DHT22;5534;48.784;9.190;2023-05-10T14:32:39;18.40;99.90
10964;DHT22;5534;48.784;9.190;2023-05-10T14:35:06;18.30;99.90
10964;DHT22;5534;48.784;9.190;2023-05-10T14:37:31;18.30;99.90
10964;DHT22;5534;48.784;9.190;2023-05-10T14:39:57;18.10;99.90
10964;DHT22;5534;48.784;9.190;2023-05-10T14:42:24;18.00;99.90
10964;DHT22;5534;48.784;9.190;2023-05-10T14:44:49;18.00;99.90
10964;DHT22;5534;48.784;9.190;2023-05-10T14:47:15;18.20;99.90
10964;DHT22;5534;48.784;9.190;2023-05-10T14:49:41;18.10;99.90
10964;DHT22;5534;48.784;9.190;2023-05-10T14:52:06;18.10;99.90
10964;DHT22;5534;48.784;9.190;2023-05-10T14:54:32;18.30;99.90
10964;DHT22;5534;48.784;9.190;2023-05-10T14:57:01;18.20;99.90
10964;DHT22;5534;48.784;9.190;2023-05-10T14:59:26;18.20;99.90
10964;DHT22;5534;48.784;9.190;2023-05-10T15:01:52;18.10;99.90
10964;DHT22;5534;48.784;9.190;2023-05-10T15:04:18;18.20;99.90
10964;DHT22;5534;48.784;9.190;2023-05-10T15:06:44;18.20;99.90
10964;DHT22;5534;48.784;9.190;2023-05-10T15:09:09;18.10;99.90
10964;DHT22;5534;48.784;9.190;2023-05-10T15:11:35;18.10;99.90
10964;DHT22;5534;48.784;9.190;2023-05-10T15:14:01;18.10;99.90
10964;DHT22;5534;48.784;9.190;2023-05-10T15:16:27;18.20;99.90
10964;DHT22;5534;48.784;9.190;2023-05-10T15:18:53;18.30;99.90
10964;DHT22;5534;48.784;9.190;2023-05-10T15:21:19;18.30;99.90
10964;DHT22;5534;48.784;9.190;2023-05-10T15:23:44;18.20;99.90
10964;DHT22;5534;48.784;9.190;2023-05-10T15:26:10;18.20;99.90
10964;DHT22;5534;48.784;9.190;2023-05-10T15:28:36;18.10;99.90
10964;DHT22;5534;48.784;9.190;2023-05-10T15:31:01;18.00;99.90
10964;DHT22;5534;48.784;9.190;2023-05-10T15:33:28;18.30;99.90
10964;DHT22;5534;48.784;9.190;2023-05-10T15:35:54;18.30;99.90
10964;DHT22;5534;48.784;9.190;2023-05-10T15:38:20;18.30;99.90
10964;DHT22;5534;48.784;9.190;2023-05-10T15:40:46;18.30;99.90
10964;DHT22;5534;48.784;9.190;2023-05-10T15:43:11;18.20;99.90
10964;DHT22;5534;48.784;9.190;2023-05-10T15:45:39;18.10;99.90
10964;DHT22;5534;48.784;9.190;2023-05-10T15:48:06;18.10;99.90
10964;DHT22;5534;48.784;9.190;2023-05-10T15:50:31;18.10;99.90
10964;DHT22;5534;48.784;9.190;2023-05-10T15:52:57;18.10;99.90
10964;DHT22;5534;48.784;9.190;2023-05-10T15:55:23;18.20;99.90
10964;DHT22;5534;48.784;9.190;2023-05-10T15:57:49;18.20;99.90
10964;DHT22;5534;48.784;9.190;2023-05-10T16:00:16;18.10;99.90
10964;DHT22;5534;48.784;9.190;2023-05-10T16:02:43;18.10;99.90
10964;DHT22;5534;48.784;9.190;2023-05-10T16:05:09;18.30;99.90
10964;DHT22;5534;48.784;9.190;2023-05-10T16:07:35;18.20;99.90
10964;DHT22;5534;48.784;9.190;2023-05-10T16:10:01;18.10;99.90
10964;DHT22;5534;48.784;9.190;2023-05-10T16:12:31;18.20;99.90
10964;DHT22;5534;48.784;9.190;2023-05-10T16:14:57;18.20;99.90
10964;DHT22;5534;48.784;9.190;2023-05-10T16:17:23;18.10;99.90
10964;DHT22;5534;48.784;9.190;2023-05-10T16:19:48;18.10;99.90
10964;DHT22;5534;48.784;9.190;2023-05-10T16:22:14;18.10;99.90
10964;DHT22;5534;48.784;9.190;2023-05-10T16:24:40;18.10;99.90
10964;DHT22;5534;48.784;9.190;2023-05-10T16:27:06;18.10;99.90